sensor_id;sensor_type;location;lat;lon;timestamp;P1;durP1;ratioP1;P2;durP2;ratioP2
9467;SDS011;4772;52.382;9.752;2023-02-18T00:01:50;8.43;;;2.07;;
9467;SDS011;4772;52.382;9.752;2023-02-18T00:04:16;8.70;;;2.40;;
9467;SDS011;4772;52.382;9.752;2023-02-18T00:06:42;7.63;;;2.33;;
9467;SDS011;4772;52.382;9.752;2023-02-18T00:09:09;9.00;;;2.57;;
9467;SDS011;4772;52.382;9.752;2023-02-18T00:11:35;9.47;;;2.27;;
9467;SDS011;4772;52.382;9.752;2023-02-18T00:14:02;9.63;;;2.30;;
9467;SDS011;4772;52.382;9.752;2023-02-18T00:16:29;12.77;;;2.37;;
9467;SDS011;4772;52.382;9.752;2023-02-18T00:18:56;9.17;;;2.50;;
9467;SDS011;4772;52.382;9.752;2023-02-18T00:21:22;11.53;;;2.30;;
9467;SDS011;4772;52.382;9.752;2023-02-18T00:23:48;9.10;;;2.30;;
9467;SDS011;4772;52.382;9.752;2023-02-18T00:26:15;8.07;;;2.57;;
9467;SDS011;4772;52.382;9.752;2023-02-18T00:28:41;8.43;;;2.00;;
9467;SDS011;4772;52.382;9.752;2023-02-18T00:31:08;8.27;;;2.27;;
9467;SDS011;4772;52.382;9.752;2023-02-18T00:33:34;6.07;;;2.23;;
9467;SDS011;4772;52.382;9.752;2023-02-18T00:36:04;7.73;;;2.07;;
9467;SDS011;4772;52.382;9.752;2023-02-18T00:38:30;8.00;;;2.17;;
9467;SDS011;4772;52.382;9.752;2023-02-18T00:40:56;13.13;;;2.30;;
9467;SDS011;4772;52.382;9.752;2023-02-18T00:43:22;14.10;;;2.63;;
9467;SDS011;4772;52.382;9.752;2023-02-18T00:45:48;10.40;;;2.30;;
9467;SDS011;4772;52.382;9.752;2023-02-18T00:48:14;10.37;;;2.30;;
9467;SDS011;4772;52.382;9.752;2023-02-18T00:50:40;9.73;;;2.60;;
9467;SDS011;4772;52.382;9.752;2023-02-18T00:53:06;3.70;;;2.00;;
9467;SDS011;4772;52.382;9.752;2023-02-18T00:55:32;7.80;;;2.13;;
9467;SDS011;4772;52.382;9.752;2023-02-18T00:58:03;7.90;;;2.10;;
9467;SDS011;4772;52.382;9.752;2023-02-18T01:00:29;10.23;;;2.20;;
9467;SDS011;4772;52.382;9.752;2023-02-18T01:02:54;7.90;;;2.20;;
9467;SDS011;4772;52.382;9.752;2023-02-18T01:05:20;7.43;;;2.20;;
9467;SDS011;4772;52.382;9.752;2023-02-18T01:07:46;9.23;;;2.23;;
9467;SDS011;4772;52.382;9.752;2023-02-18T01:10:12;6.30;;;2.20;;
9467;SDS011;4772;52.382;9.752;2023-02-18T01:12:39;10.30;;;2.27;;
9467;SDS011;4772;52.382;9.752;2023-02-18T01:15:05;7.47;;;2.20;;
9467;SDS011;4772;52.382;9.752;2023-02-18T01:17:33;9.90;;;2.30;;
9467;SDS011;4772;52.382;9.752;2023-02-18T01:20:00;10.50;;;2.27;;
9467;SDS011;4772;52.382;9.752;2023-02-18T01:22:26;7.37;;;2.10;;
9467;SDS011;4772;52.382;9.752;2023-02-18T01:24:52;8.70;;;2.37;;
9467;SDS011;4772;52.382;9.752;2023-02-18T01:27:19;5.17;;;2.27;;
9467;SDS011;4772;52.382;9.752;2023-02-18T01:29:46;8.83;;;2.10;;
9467;SDS011;4772;52.382;9.752;2023-02-18T01:32:15;11.07;;;2.00;;
9467;SDS011;4772;52.382;9.752;2023-02-18T01:34:41;10.73;;;2.73;;
9467;SDS011;4772;52.382;9.752;2023-02-18T01:37:08;8.10;;;2.00;;
9467;SDS011;4772;52.382;9.752;2023-02-18T01:39:34;9.87;;;2.30;;
9467;SDS011;4772;52.382;9.752;2023-02-18T01:42:00;6.67;;;2.67;;
9467;SDS011;4772;52.382;9.752;2023-02-18T01:44:26;7.83;;;2.07;;
9467;SDS011;4772;52.382;9.752;2023-02-18T01:46:59;9.20;;;2.43;;
9467;SDS011;4772;52.382;9.752;2023-02-18T01:49:29;8.07;;;2.30;;
9467;SDS011;4772;52.382;9.752;2023-02-18T01:52:01;5.97;;;1.90;;
9467;SDS011;4772;52.382;9.752;2023-02-18T01:54:38;5.90;;;1.90;;
9467;SDS011;4772;52.382;9.752;2023-02-18T01:57:06;11.17;;;2.20;;
9467;SDS011;4772;52.382;9.752;2023-02-18T01:59:44;7.70;;;2.10;;
9467;SDS011;4772;52.382;9.752;2023-02-18T02:02:12;7.93;;;2.60;;
9467;SDS011;4772;52.382;9.752;2023-02-18T02:04:38;7.43;;;1.73;;
9467;SDS011;4772;52.382;9.752;2023-02-18T02:07:04;7.03;;;2.27;;
9467;SDS011;4772;52.382;9.752;2023-02-18T02:09:30;10.13;;;2.10;;
9467;SDS011;4772;52.382;9.752;2023-02-18T02:17:02;6.27;;;2.20;;
9467;SDS011;4772;52.382;9.752;2023-02-18T02:25:04;9.50;;;2.13;;
9467;SDS011;4772;52.382;9.752;2023-02-18T02:27:47;11.70;;;2.40;;
9467;SDS011;4772;52.382;9.752;2023-02-18T05:17:27;23.60;;;12.23;;
9467;SDS011;4772;52.382;9.752;2023-02-18T05:22:59;20.20;;;11.07;;
9467;SDS011;4772;52.382;9.752;2023-02-18T05:25:49;20.87;;;11.77;;
9467;SDS011;4772;52.382;9.752;2023-02-18T05:31:46;22.20;;;12.67;;
9467;SDS011;4772;52.382;9.752;2023-02-18T05:34:33;22.97;;;13.10;;
9467;SDS011;4772;52.382;9.752;2023-02-18T05:37:36;20.30;;;13.00;;
9467;SDS011;4772;52.382;9.752;2023-02-18T05:44:04;25.27;;;14.33;;
9467;SDS011;4772;52.382;9.752;2023-02-18T05:47:09;25.10;;;14.13;;
9467;SDS011;4772;52.382;9.752;2023-02-18T05:52:55;24.03;;;13.63;;
9467;SDS011;4772;52.382;9.752;2023-02-18T05:55:27;24.50;;;14.33;;
9467;SDS011;4772;52.382;9.752;2023-02-18T06:01:30;26.47;;;15.47;;
9467;SDS011;4772;52.382;9.752;2023-02-18T06:04:03;28.23;;;16.83;;
9467;SDS011;4772;52.382;9.752;2023-02-18T06:06:46;28.83;;;16.80;;
9467;SDS011;4772;52.382;9.752;2023-02-18T06:21:26;28.03;;;19.37;;
9467;SDS011;4772;52.382;9.752;2023-02-18T06:23:52;31.50;;;20.07;;
9467;SDS011;4772;52.382;9.752;2023-02-18T06:26:18;31.03;;;21.13;;
9467;SDS011;4772;52.382;9.752;2023-02-18T06:28:44;32.23;;;20.87;;
9467;SDS011;4772;52.382;9.752;2023-02-18T06:31:10;35.80;;;22.80;;
9467;SDS011;4772;52.382;9.752;2023-02-18T06:33:36;35.50;;;20.90;;
9467;SDS011;4772;52.382;9.752;2023-02-18T06:36:03;32.87;;;20.33;;
9467;SDS011;4772;52.382;9.752;2023-02-18T06:38:31;34.00;;;21.33;;
9467;SDS011;4772;52.382;9.752;2023-02-18T06:40:57;31.53;;;21.47;;
9467;SDS011;4772;52.382;9.752;2023-02-18T06:43:23;35.83;;;21.33;;
9467;SDS011;4772;52.382;9.752;2023-02-18T06:45:50;30.87;;;20.00;;
9467;SDS011;4772;52.382;9.752;2023-02-18T06:48:16;34.00;;;21.67;;
9467;SDS011;4772;52.382;9.752;2023-02-18T06:50:42;30.77;;;19.03;;
9467;SDS011;4772;52.382;9.752;2023-02-18T06:53:08;33.97;;;20.83;;
9467;SDS011;4772;52.382;9.752;2023-02-18T06:55:34;31.50;;;21.67;;
9467;SDS011;4772;52.382;9.752;2023-02-18T06:58:01;33.07;;;19.33;;
9467;SDS011;4772;52.382;9.752;2023-02-18T07:00:26;33.57;;;20.13;;
9467;SDS011;4772;52.382;9.752;2023-02-18T07:02:52;30.60;;;18.90;;
9467;SDS011;4772;52.382;9.752;2023-02-18T07:05:18;34.37;;;19.90;;
9467;SDS011;4772;52.382;9.752;2023-02-18T07:07:44;32.37;;;19.63;;
9467;SDS011;4772;52.382;9.752;2023-02-18T07:10:11;31.30;;;19.53;;
9467;SDS011;4772;52.382;9.752;2023-02-18T07:12:37;33.50;;;19.80;;
9467;SDS011;4772;52.382;9.752;2023-02-18T07:15:03;35.10;;;19.77;;
9467;SDS011;4772;52.382;9.752;2023-02-18T07:17:29;31.87;;;18.97;;
9467;SDS011;4772;52.382;9.752;2023-02-18T07:19:55;28.87;;;17.47;;
9467;SDS011;4772;52.382;9.752;2023-02-18T07:22:21;27.57;;;17.33;;
9467;SDS011;4772;52.382;9.752;2023-02-18T07:24:52;29.90;;;17.93;;
9467;SDS011;4772;52.382;9.752;2023-02-18T07:27:19;29.07;;;17.90;;
9467;SDS011;4772;52.382;9.752;2023-02-18T07:29:45;26.83;;;17.13;;
9467;SDS011;4772;52.382;9.752;2023-02-18T07:32:11;27.47;;;16.87;;
9467;SDS011;4772;52.382;9.752;2023-02-18T07:34:37;25.17;;;16.17;;
9467;SDS011;4772;52.382;9.752;2023-02-18T07:37:03;29.17;;;16.97;;
9467;SDS011;4772;52.382;9.752;2023-02-18T07:39:33;30.13;;;17.60;;
9467;SDS011;4772;52.382;9.752;2023-02-18T07:41:59;26.03;;;17.50;;
9467;SDS011;4772;52.382;9.752;2023-02-18T07:44:25;26.40;;;17.00;;
9467;SDS011;4772;52.382;9.752;2023-02-18T07:46:51;27.97;;;18.37;;
9467;SDS011;4772;52.382;9.752;2023-02-18T07:49:17;29.37;;;17.37;;
9467;SDS011;4772;52.382;9.752;2023-02-18T07:51:45;28.87;;;16.57;;
9467;SDS011;4772;52.382;9.752;2023-02-18T07:54:12;28.87;;;17.87;;
9467;SDS011;4772;52.382;9.752;2023-02-18T07:56:40;26.53;;;16.20;;
9467;SDS011;4772;52.382;9.752;2023-02-18T07:59:09;25.80;;;15.50;;
9467;SDS011;4772;52.382;9.752;2023-02-18T08:01:35;21.70;;;14.20;;
9467;SDS011;4772;52.382;9.752;2023-02-18T08:04:01;21.80;;;14.23;;
9467;SDS011;4772;52.382;9.752;2023-02-18T08:06:30;24.63;;;15.50;;
9467;SDS011;4772;52.382;9.752;2023-02-18T08:08:56;20.30;;;13.07;;
9467;SDS011;4772;52.382;9.752;2023-02-18T08:11:22;17.93;;;11.60;;
9467;SDS011;4772;52.382;9.752;2023-02-18T08:13:48;17.83;;;10.87;;
9467;SDS011;4772;52.382;9.752;2023-02-18T08:16:18;17.07;;;10.53;;
9467;SDS011;4772;52.382;9.752;2023-02-18T08:18:44;11.10;;;8.03;;
9467;SDS011;4772;52.382;9.752;2023-02-18T08:21:12;11.43;;;7.93;;
9467;SDS011;4772;52.382;9.752;2023-02-18T08:23:38;9.17;;;7.00;;
9467;SDS011;4772;52.382;9.752;2023-02-18T08:26:04;8.67;;;6.03;;
9467;SDS011;4772;52.382;9.752;2023-02-18T08:28:30;7.33;;;5.30;;
9467;SDS011;4772;52.382;9.752;2023-02-18T08:30:56;6.20;;;4.10;;
9467;SDS011;4772;52.382;9.752;2023-02-18T08:33:23;6.97;;;4.80;;
9467;SDS011;4772;52.382;9.752;2023-02-18T08:35:49;5.13;;;4.00;;
9467;SDS011;4772;52.382;9.752;2023-02-18T08:38:15;5.87;;;4.40;;
9467;SDS011;4772;52.382;9.752;2023-02-18T08:40:42;4.83;;;3.30;;
9467;SDS011;4772;52.382;9.752;2023-02-18T08:43:08;3.70;;;3.10;;
9467;SDS011;4772;52.382;9.752;2023-02-18T08:45:35;4.10;;;3.40;;
9467;SDS011;4772;52.382;9.752;2023-02-18T08:48:02;4.57;;;3.03;;
9467;SDS011;4772;52.382;9.752;2023-02-18T08:50:28;3.47;;;2.97;;
9467;SDS011;4772;52.382;9.752;2023-02-18T08:52:55;3.57;;;2.90;;
9467;SDS011;4772;52.382;9.752;2023-02-18T08:55:24;3.63;;;3.03;;
9467;SDS011;4772;52.382;9.752;2023-02-18T08:57:50;3.20;;;2.90;;
9467;SDS011;4772;52.382;9.752;2023-02-18T09:00:17;3.83;;;3.30;;
9467;SDS011;4772;52.382;9.752;2023-02-18T09:02:43;5.33;;;3.10;;
9467;SDS011;4772;52.382;9.752;2023-02-18T09:05:09;4.33;;;3.00;;
9467;SDS011;4772;52.382;9.752;2023-02-18T09:07:35;3.90;;;3.03;;
9467;SDS011;4772;52.382;9.752;2023-02-18T09:10:02;3.20;;;2.90;;
9467;SDS011;4772;52.382;9.752;2023-02-18T09:12:28;2.60;;;2.40;;
9467;SDS011;4772;52.382;9.752;2023-02-18T09:14:54;2.60;;;2.40;;
9467;SDS011;4772;52.382;9.752;2023-02-18T09:17:20;2.73;;;2.50;;
9467;SDS011;4772;52.382;9.752;2023-02-18T09:19:46;2.50;;;2.30;;
9467;SDS011;4772;52.382;9.752;2023-02-18T09:22:12;2.40;;;2.20;;
9467;SDS011;4772;52.382;9.752;2023-02-18T09:24:38;2.27;;;2.07;;
9467;SDS011;4772;52.382;9.752;2023-02-18T09:27:05;2.30;;;2.10;;
9467;SDS011;4772;52.382;9.752;2023-02-18T09:29:31;2.20;;;2.00;;
9467;SDS011;4772;52.382;9.752;2023-02-18T09:32:00;1.90;;;1.80;;
9467;SDS011;4772;52.382;9.752;2023-02-18T09:34:26;1.97;;;1.60;;
9467;SDS011;4772;52.382;9.752;2023-02-18T09:36:53;2.03;;;1.83;;
9467;SDS011;4772;52.382;9.752;2023-02-18T09:39:19;1.80;;;1.70;;
9467;SDS011;4772;52.382;9.752;2023-02-18T09:41:46;1.70;;;1.50;;
9467;SDS011;4772;52.382;9.752;2023-02-18T09:46:47;1.40;;;1.30;;
9467;SDS011;4772;52.382;9.752;2023-02-18T09:49:19;1.33;;;1.27;;
9467;SDS011;4772;52.382;9.752;2023-02-18T09:51:46;1.30;;;1.20;;
9467;SDS011;4772;52.382;9.752;2023-02-18T09:54:13;2.27;;;1.37;;
9467;SDS011;4772;52.382;9.752;2023-02-18T09:56:39;1.43;;;1.33;;
9467;SDS011;4772;52.382;9.752;2023-02-18T09:59:05;1.40;;;1.30;;
9467;SDS011;4772;52.382;9.752;2023-02-18T10:01:35;1.17;;;0.93;;
9467;SDS011;4772;52.382;9.752;2023-02-18T10:04:36;1.77;;;1.10;;
9467;SDS011;4772;52.382;9.752;2023-02-18T10:06:56;1.30;;;1.20;;
9467;SDS011;4772;52.382;9.752;2023-02-18T10:09:32;1.00;;;1.00;;
9467;SDS011;4772;52.382;9.752;2023-02-18T10:12:03;0.87;;;0.87;;
9467;SDS011;4772;52.382;9.752;2023-02-18T10:14:32;1.10;;;1.00;;
9467;SDS011;4772;52.382;9.752;2023-02-18T10:16:59;1.83;;;1.10;;
9467;SDS011;4772;52.382;9.752;2023-02-18T10:19:31;0.90;;;0.90;;
9467;SDS011;4772;52.382;9.752;2023-02-18T10:21:58;1.03;;;0.90;;
9467;SDS011;4772;52.382;9.752;2023-02-18T10:26:52;1.10;;;1.00;;
9467;SDS011;4772;52.382;9.752;2023-02-18T10:29:18;0.93;;;0.93;;
9467;SDS011;4772;52.382;9.752;2023-02-18T10:31:47;1.30;;;1.20;;
9467;SDS011;4772;52.382;9.752;2023-02-18T10:36:46;1.30;;;1.20;;
9467;SDS011;4772;52.382;9.752;2023-02-18T10:46:59;1.40;;;1.30;;
9467;SDS011;4772;52.382;9.752;2023-02-18T10:51:53;1.13;;;1.10;;
9467;SDS011;4772;52.382;9.752;2023-02-18T10:54:24;2.07;;;1.43;;
9467;SDS011;4772;52.382;9.752;2023-02-18T10:56:52;1.20;;;1.20;;
9467;SDS011;4772;52.382;9.752;2023-02-18T10:59:24;1.20;;;1.10;;
9467;SDS011;4772;52.382;9.752;2023-02-18T11:02:10;1.10;;;1.10;;
9467;SDS011;4772;52.382;9.752;2023-02-18T11:04:39;1.10;;;1.03;;
9467;SDS011;4772;52.382;9.752;2023-02-18T11:07:09;1.00;;;1.00;;
9467;SDS011;4772;52.382;9.752;2023-02-18T11:09:41;1.40;;;1.00;;
9467;SDS011;4772;52.382;9.752;2023-02-18T11:12:19;0.90;;;0.90;;
9467;SDS011;4772;52.382;9.752;2023-02-18T11:14:47;1.10;;;1.00;;
9467;SDS011;4772;52.382;9.752;2023-02-18T11:17:19;1.17;;;1.00;;
9467;SDS011;4772;52.382;9.752;2023-02-18T11:19:55;1.30;;;1.20;;
9467;SDS011;4772;52.382;9.752;2023-02-18T11:22:28;1.13;;;1.13;;
9467;SDS011;4772;52.382;9.752;2023-02-18T11:24:55;1.93;;;1.50;;
9467;SDS011;4772;52.382;9.752;2023-02-18T11:27:23;1.13;;;1.03;;
9467;SDS011;4772;52.382;9.752;2023-02-18T11:29:53;1.40;;;1.30;;
9467;SDS011;4772;52.382;9.752;2023-02-18T11:32:20;4.03;;;1.70;;
9467;SDS011;4772;52.382;9.752;2023-02-18T11:34:46;1.30;;;1.20;;
9467;SDS011;4772;52.382;9.752;2023-02-18T11:37:17;1.53;;;1.30;;
9467;SDS011;4772;52.382;9.752;2023-02-18T11:39:44;1.60;;;1.50;;
9467;SDS011;4772;52.382;9.752;2023-02-18T11:42:14;1.30;;;1.20;;
9467;SDS011;4772;52.382;9.752;2023-02-18T11:44:42;1.23;;;1.17;;
9467;SDS011;4772;52.382;9.752;2023-02-18T11:50:37;1.50;;;1.40;;
9467;SDS011;4772;52.382;9.752;2023-02-18T11:53:18;1.20;;;1.20;;
9467;SDS011;4772;52.382;9.752;2023-02-18T11:55:52;1.50;;;1.40;;
9467;SDS011;4772;52.382;9.752;2023-02-18T11:58:38;1.50;;;1.40;;
9467;SDS011;4772;52.382;9.752;2023-02-18T12:06:33;1.73;;;1.63;;
9467;SDS011;4772;52.382;9.752;2023-02-18T12:09:13;2.00;;;1.50;;
9467;SDS011;4772;52.382;9.752;2023-02-18T12:11:45;1.87;;;1.60;;
9467;SDS011;4772;52.382;9.752;2023-02-18T12:14:20;1.50;;;1.40;;
9467;SDS011;4772;52.382;9.752;2023-02-18T12:19:17;1.70;;;1.40;;
9467;SDS011;4772;52.382;9.752;2023-02-18T12:22:04;1.50;;;1.40;;
9467;SDS011;4772;52.382;9.752;2023-02-18T12:28:00;1.53;;;1.43;;
9467;SDS011;4772;52.382;9.752;2023-02-18T12:43:53;1.50;;;1.40;;
9467;SDS011;4772;52.382;9.752;2023-02-18T12:59:57;2.93;;;1.90;;
9467;SDS011;4772;52.382;9.752;2023-02-18T13:05:30;2.30;;;1.83;;
9467;SDS011;4772;52.382;9.752;2023-02-18T13:13:13;2.47;;;1.90;;
9467;SDS011;4772;52.382;9.752;2023-02-18T13:15:51;2.83;;;1.80;;
9467;SDS011;4772;52.382;9.752;2023-02-18T13:18:23;3.10;;;1.80;;
9467;SDS011;4772;52.382;9.752;2023-02-18T13:21:05;2.97;;;2.03;;
9467;SDS011;4772;52.382;9.752;2023-02-18T13:23:48;3.77;;;2.37;;
9467;SDS011;4772;52.382;9.752;2023-02-18T13:26:17;2.17;;;1.97;;
9467;SDS011;4772;52.382;9.752;2023-02-18T13:28:45;3.57;;;2.20;;
9467;SDS011;4772;52.382;9.752;2023-02-18T13:31:21;3.20;;;2.40;;
9467;SDS011;4772;52.382;9.752;2023-02-18T13:36:46;3.07;;;2.30;;
9467;SDS011;4772;52.382;9.752;2023-02-18T13:39:31;2.40;;;2.20;;
9467;SDS011;4772;52.382;9.752;2023-02-18T13:47:45;5.50;;;2.67;;
9467;SDS011;4772;52.382;9.752;2023-02-18T13:50:32;4.57;;;2.93;;
9467;SDS011;4772;52.382;9.752;2023-02-18T13:53:48;3.00;;;2.20;;
9467;SDS011;4772;52.382;9.752;2023-02-18T14:00:05;4.20;;;2.80;;
9467;SDS011;4772;52.382;9.752;2023-02-18T14:03:57;4.33;;;3.00;;
9467;SDS011;4772;52.382;9.752;2023-02-18T14:06:00;4.53;;;3.40;;
9467;SDS011;4772;52.382;9.752;2023-02-18T14:08:29;4.00;;;3.20;;
9467;SDS011;4772;52.382;9.752;2023-02-18T14:11:24;4.77;;;3.40;;
9467;SDS011;4772;52.382;9.752;2023-02-18T14:29:28;5.67;;;4.00;;
9467;SDS011;4772;52.382;9.752;2023-02-18T14:31:59;5.93;;;4.10;;
9467;SDS011;4772;52.382;9.752;2023-02-18T14:34:49;5.90;;;3.97;;
9467;SDS011;4772;52.382;9.752;2023-02-18T14:37:47;5.53;;;4.20;;
9467;SDS011;4772;52.382;9.752;2023-02-18T14:40:50;5.10;;;4.37;;
9467;SDS011;4772;52.382;9.752;2023-02-18T14:43:38;6.13;;;4.67;;
9467;SDS011;4772;52.382;9.752;2023-02-18T14:51:50;5.33;;;3.43;;
9467;SDS011;4772;52.382;9.752;2023-02-18T14:54:20;4.20;;;3.63;;
9467;SDS011;4772;52.382;9.752;2023-02-18T14:57:03;6.50;;;3.60;;
9467;SDS011;4772;52.382;9.752;2023-02-18T14:59:57;5.63;;;3.57;;
9467;SDS011;4772;52.382;9.752;2023-02-18T15:02:47;4.60;;;3.30;;
9467;SDS011;4772;52.382;9.752;2023-02-18T15:05:22;7.47;;;3.40;;
9467;SDS011;4772;52.382;9.752;2023-02-18T15:08:05;7.20;;;3.87;;
9467;SDS011;4772;52.382;9.752;2023-02-18T15:20:02;5.10;;;3.67;;
9467;SDS011;4772;52.382;9.752;2023-02-18T15:26:17;9.70;;;4.00;;
9467;SDS011;4772;52.382;9.752;2023-02-18T15:28:57;5.77;;;4.00;;
9467;SDS011;4772;52.382;9.752;2023-02-18T15:31:30;7.60;;;4.17;;
9467;SDS011;4772;52.382;9.752;2023-02-18T15:34:02;7.50;;;4.00;;
9467;SDS011;4772;52.382;9.752;2023-02-18T15:37:04;9.90;;;4.37;;
9467;SDS011;4772;52.382;9.752;2023-02-18T15:39:37;6.13;;;4.20;;
9467;SDS011;4772;52.382;9.752;2023-02-18T15:45:19;10.40;;;4.03;;
9467;SDS011;4772;52.382;9.752;2023-02-18T15:47:50;8.57;;;4.60;;
9467;SDS011;4772;52.382;9.752;2023-02-18T15:50:32;6.20;;;4.80;;
9467;SDS011;4772;52.382;9.752;2023-02-18T15:53:15;8.10;;;4.73;;
9467;SDS011;4772;52.382;9.752;2023-02-18T15:55:45;8.73;;;4.93;;
9467;SDS011;4772;52.382;9.752;2023-02-18T15:58:53;10.23;;;5.30;;
9467;SDS011;4772;52.382;9.752;2023-02-18T16:01:52;7.00;;;4.60;;
9467;SDS011;4772;52.382;9.752;2023-02-18T16:04:27;9.03;;;5.00;;
9467;SDS011;4772;52.382;9.752;2023-02-18T16:07:32;9.60;;;5.23;;
9467;SDS011;4772;52.382;9.752;2023-02-18T16:10:13;10.00;;;4.73;;
9467;SDS011;4772;52.382;9.752;2023-02-18T16:12:44;6.93;;;4.63;;
9467;SDS011;4772;52.382;9.752;2023-02-18T16:15:26;8.70;;;4.67;;
9467;SDS011;4772;52.382;9.752;2023-02-18T16:18:01;8.00;;;4.73;;
9467;SDS011;4772;52.382;9.752;2023-02-18T16:20:35;9.23;;;4.60;;
9467;SDS011;4772;52.382;9.752;2023-02-18T16:23:13;8.03;;;4.93;;
9467;SDS011;4772;52.382;9.752;2023-02-18T16:26:26;13.07;;;4.47;;
9467;SDS011;4772;52.382;9.752;2023-02-18T16:29:15;11.77;;;4.90;;
9467;SDS011;4772;52.382;9.752;2023-02-18T16:31:52;10.37;;;4.93;;
9467;SDS011;4772;52.382;9.752;2023-02-18T16:34:40;8.40;;;4.70;;
9467;SDS011;4772;52.382;9.752;2023-02-18T16:44:15;9.40;;;4.87;;
9467;SDS011;4772;52.382;9.752;2023-02-18T16:47:06;11.93;;;4.60;;
9467;SDS011;4772;52.382;9.752;2023-02-18T16:49:38;12.77;;;4.87;;
9467;SDS011;4772;52.382;9.752;2023-02-18T16:52:23;10.83;;;5.10;;
9467;SDS011;4772;52.382;9.752;2023-02-18T16:54:55;10.20;;;5.47;;
9467;SDS011;4772;52.382;9.752;2023-02-18T16:57:27;11.53;;;4.97;;
9467;SDS011;4772;52.382;9.752;2023-02-18T16:59:54;11.37;;;4.93;;
9467;SDS011;4772;52.382;9.752;2023-02-18T17:02:47;9.80;;;4.77;;
9467;SDS011;4772;52.382;9.752;2023-02-18T17:05:54;10.40;;;5.40;;
9467;SDS011;4772;52.382;9.752;2023-02-18T17:08:26;11.43;;;5.00;;
9467;SDS011;4772;52.382;9.752;2023-02-18T17:11:29;9.63;;;4.00;;
9467;SDS011;4772;52.382;9.752;2023-02-18T17:14:17;9.60;;;4.00;;
9467;SDS011;4772;52.382;9.752;2023-02-18T17:17:08;9.13;;;3.87;;
9467;SDS011;4772;52.382;9.752;2023-02-18T17:19:45;9.67;;;3.80;;
9467;SDS011;4772;52.382;9.752;2023-02-18T17:22:27;7.17;;;3.70;;
9467;SDS011;4772;52.382;9.752;2023-02-18T17:25:24;8.23;;;4.40;;
9467;SDS011;4772;52.382;9.752;2023-02-18T17:28:02;10.73;;;3.90;;
9467;SDS011;4772;52.382;9.752;2023-02-18T17:30:52;9.23;;;3.87;;
9467;SDS011;4772;52.382;9.752;2023-02-18T17:33:20;9.23;;;3.97;;
9467;SDS011;4772;52.382;9.752;2023-02-18T17:35:48;9.90;;;4.20;;
9467;SDS011;4772;52.382;9.752;2023-02-18T17:39:04;8.73;;;4.00;;
9467;SDS011;4772;52.382;9.752;2023-02-18T17:41:31;7.57;;;3.27;;
9467;SDS011;4772;52.382;9.752;2023-02-18T17:43:57;8.83;;;3.50;;
9467;SDS011;4772;52.382;9.752;2023-02-18T17:46:23;6.27;;;3.10;;
9467;SDS011;4772;52.382;9.752;2023-02-18T17:48:48;11.17;;;4.63;;
9467;SDS011;4772;52.382;9.752;2023-02-18T17:51:21;7.70;;;3.40;;
9467;SDS011;4772;52.382;9.752;2023-02-18T17:53:48;9.20;;;3.73;;
9467;SDS011;4772;52.382;9.752;2023-02-18T17:56:14;8.27;;;3.80;;
9467;SDS011;4772;52.382;9.752;2023-02-18T17:58:40;8.20;;;4.17;;
9467;SDS011;4772;52.382;9.752;2023-02-18T18:01:08;6.93;;;3.70;;
9467;SDS011;4772;52.382;9.752;2023-02-18T18:03:34;12.30;;;4.37;;
9467;SDS011;4772;52.382;9.752;2023-02-18T18:06:00;10.37;;;3.60;;
9467;SDS011;4772;52.382;9.752;2023-02-18T18:08:37;8.87;;;3.50;;
9467;SDS011;4772;52.382;9.752;2023-02-18T18:11:03;8.57;;;3.30;;
9467;SDS011;4772;52.382;9.752;2023-02-18T18:13:30;9.20;;;3.40;;
9467;SDS011;4772;52.382;9.752;2023-02-18T18:15:56;8.33;;;3.33;;
9467;SDS011;4772;52.382;9.752;2023-02-18T18:18:22;6.57;;;3.00;;
9467;SDS011;4772;52.382;9.752;2023-02-18T18:20:52;8.93;;;3.40;;
9467;SDS011;4772;52.382;9.752;2023-02-18T18:23:19;8.30;;;3.40;;
9467;SDS011;4772;52.382;9.752;2023-02-18T18:25:52;14.07;;;6.97;;
9467;SDS011;4772;52.382;9.752;2023-02-18T18:28:19;20.83;;;9.27;;
9467;SDS011;4772;52.382;9.752;2023-02-18T18:30:47;8.03;;;3.57;;
9467;SDS011;4772;52.382;9.752;2023-02-18T18:33:29;8.30;;;3.47;;
9467;SDS011;4772;52.382;9.752;2023-02-18T18:35:56;8.27;;;3.73;;
9467;SDS011;4772;52.382;9.752;2023-02-18T18:38:23;5.47;;;3.23;;
9467;SDS011;4772;52.382;9.752;2023-02-18T18:40:50;8.27;;;3.63;;
9467;SDS011;4772;52.382;9.752;2023-02-18T18:45:42;6.63;;;3.20;;
9467;SDS011;4772;52.382;9.752;2023-02-18T18:48:08;6.67;;;3.53;;
9467;SDS011;4772;52.382;9.752;2023-02-18T18:50:34;7.50;;;3.43;;
9467;SDS011;4772;52.382;9.752;2023-02-18T18:53:05;6.70;;;3.33;;
9467;SDS011;4772;52.382;9.752;2023-02-18T18:55:32;7.27;;;3.27;;
9467;SDS011;4772;52.382;9.752;2023-02-18T18:57:59;4.87;;;2.70;;
9467;SDS011;4772;52.382;9.752;2023-02-18T19:00:29;10.07;;;3.50;;
9467;SDS011;4772;52.382;9.752;2023-02-18T19:02:56;6.90;;;2.90;;
9467;SDS011;4772;52.382;9.752;2023-02-18T19:07:48;7.13;;;2.80;;
9467;SDS011;4772;52.382;9.752;2023-02-18T19:10:15;11.97;;;3.70;;
9467;SDS011;4772;52.382;9.752;2023-02-18T19:12:41;10.50;;;3.20;;
9467;SDS011;4772;52.382;9.752;2023-02-18T19:15:09;6.60;;;3.53;;
9467;SDS011;4772;52.382;9.752;2023-02-18T19:17:35;13.33;;;3.63;;
9467;SDS011;4772;52.382;9.752;2023-02-18T19:20:01;7.50;;;3.10;;
9467;SDS011;4772;52.382;9.752;2023-02-18T19:22:36;7.77;;;3.03;;
9467;SDS011;4772;52.382;9.752;2023-02-18T19:25:02;9.17;;;3.60;;
9467;SDS011;4772;52.382;9.752;2023-02-18T19:27:29;8.90;;;3.43;;
9467;SDS011;4772;52.382;9.752;2023-02-18T19:29:55;6.60;;;3.47;;
9467;SDS011;4772;52.382;9.752;2023-02-18T19:32:22;7.20;;;3.57;;
9467;SDS011;4772;52.382;9.752;2023-02-18T19:34:48;7.53;;;3.10;;
9467;SDS011;4772;52.382;9.752;2023-02-18T19:37:14;9.30;;;3.73;;
9467;SDS011;4772;52.382;9.752;2023-02-18T19:39:40;7.53;;;3.17;;
9467;SDS011;4772;52.382;9.752;2023-02-18T19:42:06;8.13;;;4.00;;
9467;SDS011;4772;52.382;9.752;2023-02-18T19:44:44;8.13;;;3.77;;
9467;SDS011;4772;52.382;9.752;2023-02-18T19:52:45;8.17;;;3.47;;
9467;SDS011;4772;52.382;9.752;2023-02-18T19:55:11;7.70;;;2.97;;
9467;SDS011;4772;52.382;9.752;2023-02-18T19:57:37;11.13;;;3.40;;
9467;SDS011;4772;52.382;9.752;2023-02-18T20:00:05;9.07;;;3.60;;
9467;SDS011;4772;52.382;9.752;2023-02-18T20:02:34;10.27;;;3.50;;
9467;SDS011;4772;52.382;9.752;2023-02-18T20:05:00;8.23;;;3.80;;
9467;SDS011;4772;52.382;9.752;2023-02-18T20:07:27;8.90;;;3.77;;
9467;SDS011;4772;52.382;9.752;2023-02-18T20:09:53;8.93;;;3.87;;
9467;SDS011;4772;52.382;9.752;2023-02-18T20:12:19;8.03;;;3.50;;
9467;SDS011;4772;52.382;9.752;2023-02-18T20:14:47;10.77;;;3.33;;
9467;SDS011;4772;52.382;9.752;2023-02-18T20:17:13;14.03;;;4.57;;
9467;SDS011;4772;52.382;9.752;2023-02-18T20:19:39;9.70;;;3.77;;
9467;SDS011;4772;52.382;9.752;2023-02-18T20:22:05;8.43;;;3.30;;
9467;SDS011;4772;52.382;9.752;2023-02-18T20:24:34;9.97;;;3.83;;
9467;SDS011;4772;52.382;9.752;2023-02-18T20:27:00;9.53;;;3.80;;
9467;SDS011;4772;52.382;9.752;2023-02-18T20:29:26;8.93;;;3.33;;
9467;SDS011;4772;52.382;9.752;2023-02-18T20:31:52;13.50;;;4.37;;
9467;SDS011;4772;52.382;9.752;2023-02-18T20:34:18;11.07;;;4.00;;
9467;SDS011;4772;52.382;9.752;2023-02-18T20:36:46;11.77;;;3.73;;
9467;SDS011;4772;52.382;9.752;2023-02-18T20:39:13;10.17;;;3.70;;
9467;SDS011;4772;52.382;9.752;2023-02-18T20:41:39;11.87;;;4.17;;
9467;SDS011;4772;52.382;9.752;2023-02-18T20:44:05;10.70;;;3.60;;
9467;SDS011;4772;52.382;9.752;2023-02-18T20:46:35;11.80;;;3.77;;
9467;SDS011;4772;52.382;9.752;2023-02-18T20:49:05;12.90;;;3.57;;
9467;SDS011;4772;52.382;9.752;2023-02-18T20:51:32;9.17;;;3.70;;
9467;SDS011;4772;52.382;9.752;2023-02-18T20:53:58;7.53;;;3.67;;
9467;SDS011;4772;52.382;9.752;2023-02-18T20:56:25;7.53;;;3.67;;
9467;SDS011;4772;52.382;9.752;2023-02-18T20:58:51;10.73;;;4.33;;
9467;SDS011;4772;52.382;9.752;2023-02-18T21:01:17;10.43;;;4.30;;
9467;SDS011;4772;52.382;9.752;2023-02-18T21:03:46;10.67;;;3.57;;
9467;SDS011;4772;52.382;9.752;2023-02-18T21:06:14;9.43;;;4.03;;
9467;SDS011;4772;52.382;9.752;2023-02-18T21:08:40;10.43;;;3.80;;
9467;SDS011;4772;52.382;9.752;2023-02-18T21:11:08;8.50;;;3.70;;
9467;SDS011;4772;52.382;9.752;2023-02-18T21:13:34;13.60;;;4.43;;
9467;SDS011;4772;52.382;9.752;2023-02-18T21:16:03;14.00;;;4.13;;